PWSweather.com
Personal Weather Stations
Station Observations
KWABLAIN13
Ptl Weather, Blaine, WA

Ptl WeatherBlaine, WA

Lat: 48.997393, Lon: -122.748614

Elevation: 57

Station Type: Davis Advantage Pro 2

http://www.ptlnet.net

Latest ConditionsUpdated 3:45:03 AM PDT Sunday, Apr 20, 2014
Currently Today's Max Today's Min Today's Average
Temperature 48.1°F8.9°C 48.3°F9.1°C 47.4°F8.6°C 47.9°F8.8°C
Dew Point 42.2°F5.7°C 43.5°F6.4°C 41.9°F5.5°C 42.6°F5.9°C
Winds 10.0 mph SSW16.1 kmh SSW 16.0 mph SW25.7 kmh SW - 8.4 mph 13.5 kmh
Wind Gusts 15.0 mph24.1 kmh 19.0 mph30.6 kmh - -
Humidity 80% 84% 79% 82%
Pressure 30.22 in1023.4 mb 30.22 in1023.4 mb 30.11 in1019.6 mb -
Hour Temp Dew Point Humidity Winds Wind Gusts Pressure Precip Precip Rate Daily Precip Total
03:45 AM 48.1°F8.9°C 42.2°F5.7°C 80% 10.0 mph SSW16.1 kmh SSW 15.0 mph24.1 kmh 30.22 in1023.4 mb 0.00 in0.0 mm 0.00 in/hr0.0 mm/hr 0.00 in0.0 mm
03:30 AM 48.0°F8.9°C 42.1°F5.6°C 80% 7.0 mph SSW11.3 kmh SSW 12.0 mph19.3 kmh 30.21 in1023.0 mb 0.00 in0.0 mm 0.00 in/hr0.0 mm/hr 0.00 in0.0 mm
03:25 AM 48.0°F8.9°C 42.1°F5.6°C 80% 6.0 mph SSW9.7 kmh SSW 11.0 mph17.7 kmh 30.21 in1023.0 mb 0.00 in0.0 mm 0.00 in/hr0.0 mm/hr 0.00 in0.0 mm
03:09 AM 48.1°F8.9°C 41.9°F5.5°C 79% 6.0 mph SSW9.7 kmh SSW 12.0 mph19.3 kmh 30.20 in1022.7 mb 0.00 in0.0 mm 0.00 in/hr0.0 mm/hr 0.00 in0.0 mm
03:05 AM 48.1°F8.9°C 41.9°F5.5°C 79% 11.0 mph SSW17.7 kmh SSW 12.0 mph19.3 kmh 30.20 in1022.7 mb 0.00 in0.0 mm 0.00 in/hr0.0 mm/hr 0.00 in0.0 mm
02:50 AM 48.0°F8.9°C 42.1°F5.6°C 80% 7.0 mph SW11.3 kmh SW 15.0 mph24.1 kmh 30.19 in1022.4 mb 0.00 in0.0 mm 0.00 in/hr0.0 mm/hr 0.00 in0.0 mm
02:45 AM 48.0°F8.9°C 42.1°F5.6°C 80% 6.0 mph SSW9.7 kmh SSW 15.0 mph24.1 kmh 30.19 in1022.4 mb 0.00 in0.0 mm 0.00 in/hr0.0 mm/hr 0.00 in0.0 mm
02:29 AM 48.1°F8.9°C 42.6°F5.9°C 81% 11.0 mph SSW17.7 kmh SSW 15.0 mph24.1 kmh 30.19 in1022.4 mb 0.00 in0.0 mm 0.00 in/hr0.0 mm/hr 0.00 in0.0 mm
02:24 AM 48.2°F9.0°C 42.3°F5.7°C 80% 10.0 mph SW16.1 kmh SW 15.0 mph24.1 kmh 30.18 in1022.0 mb 0.00 in0.0 mm 0.00 in/hr0.0 mm/hr 0.00 in0.0 mm
02:09 AM 48.3°F9.1°C 42.4°F5.8°C 80% 8.0 mph SW12.9 kmh SW 17.0 mph27.4 kmh 30.17 in1021.7 mb 0.00 in0.0 mm 0.00 in/hr0.0 mm/hr 0.00 in0.0 mm
02:05 AM 48.2°F9.0°C 42.0°F5.6°C 79% 8.0 mph SW12.9 kmh SW 17.0 mph27.4 kmh 30.17 in1021.7 mb 0.00 in0.0 mm 0.00 in/hr0.0 mm/hr 0.00 in0.0 mm
01:50 AM 48.1°F8.9°C 42.6°F5.9°C 81% 10.0 mph SSW16.1 kmh SSW 13.0 mph20.9 kmh 30.16 in1021.3 mb 0.00 in0.0 mm 0.00 in/hr0.0 mm/hr 0.00 in0.0 mm
01:45 AM 47.9°F8.8°C 42.7°F5.9°C 82% 16.0 mph SW25.7 kmh SW 19.0 mph30.6 kmh 30.16 in1021.3 mb 0.00 in0.0 mm 0.00 in/hr0.0 mm/hr 0.00 in0.0 mm
01:30 AM 47.5°F8.6°C 42.9°F6.1°C 84% 6.0 mph SW9.7 kmh SW 13.0 mph20.9 kmh 30.15 in1021.0 mb 0.00 in0.0 mm 0.00 in/hr0.0 mm/hr 0.00 in0.0 mm
01:25 AM 47.5°F8.6°C 42.9°F6.1°C 84% 5.0 mph SSE8.0 kmh SSE 11.0 mph17.7 kmh 30.16 in1021.3 mb 0.00 in0.0 mm 0.00 in/hr0.0 mm/hr 0.00 in0.0 mm
01:10 AM 47.4°F8.6°C 42.8°F6.0°C 84% 8.0 mph S12.9 kmh S 18.0 mph29.0 kmh 30.15 in1021.0 mb 0.00 in0.0 mm 0.00 in/hr0.0 mm/hr 0.00 in0.0 mm
01:05 AM 47.4°F8.6°C 42.8°F6.0°C 84% 5.0 mph SSW8.0 kmh SSW 13.0 mph20.9 kmh 30.15 in1021.0 mb 0.00 in0.0 mm 0.00 in/hr0.0 mm/hr 0.00 in0.0 mm
12:50 AM 47.6°F8.7°C 43.0°F6.1°C 84% 5.0 mph SSE8.0 kmh SSE 12.0 mph19.3 kmh 30.13 in1020.3 mb 0.00 in0.0 mm 0.00 in/hr0.0 mm/hr 0.00 in0.0 mm
12:45 AM 47.8°F8.8°C 43.2°F6.2°C 84% 6.0 mph S9.7 kmh S 12.0 mph19.3 kmh 30.13 in1020.3 mb 0.00 in0.0 mm 0.00 in/hr0.0 mm/hr 0.00 in0.0 mm
12:30 AM 47.9°F8.8°C 42.7°F5.9°C 82% 14.0 mph S22.5 kmh S 18.0 mph29.0 kmh 30.12 in1020.0 mb 0.00 in0.0 mm 0.00 in/hr0.0 mm/hr 0.00 in0.0 mm
12:25 AM 47.9°F8.8°C 42.7°F5.9°C 82% 10.0 mph SSW16.1 kmh SSW 16.0 mph25.7 kmh 30.12 in1020.0 mb 0.00 in0.0 mm 0.00 in/hr0.0 mm/hr 0.00 in0.0 mm
12:09 AM 48.0°F8.9°C 43.4°F6.3°C 84% 9.0 mph SW14.5 kmh SW 18.0 mph29.0 kmh 30.11 in1019.6 mb 0.00 in0.0 mm 0.00 in/hr0.0 mm/hr 0.00 in0.0 mm
12:04 AM 48.1°F8.9°C 43.5°F6.4°C 84% 9.0 mph SW14.5 kmh SW 16.0 mph25.7 kmh 30.11 in1019.6 mb 0.00 in0.0 mm 0.00 in/hr0.0 mm/hr 0.00 in0.0 mm